sensor_id;sensor_type;location;lat;lon;timestamp;pressure;altitude;pressure_sealevel;temperature;humidity
23016;BME280;11674;52.428;13.584;2022-07-29T00:00:53;101639.84;;;18.96;45.31
23016;BME280;11674;52.428;13.584;2022-07-29T00:03:25;101644.16;;;18.93;45.57
23016;BME280;11674;52.428;13.584;2022-07-29T00:05:57;101648.44;;;18.91;45.44
23016;BME280;11674;52.428;13.584;2022-07-29T00:08:29;101647.41;;;18.87;45.41
23016;BME280;11674;52.428;13.584;2022-07-29T00:11:01;101656.00;;;18.82;45.44
23016;BME280;11674;52.428;13.584;2022-07-29T00:13:33;101651.03;;;18.79;45.66
23016;BME280;11674;52.428;13.584;2022-07-29T00:16:05;101641.59;;;18.75;45.67
23016;BME280;11674;52.428;13.584;2022-07-29T00:18:37;101638.09;;;18.69;45.98
23016;BME280;11674;52.428;13.584;2022-07-29T00:21:09;101640.38;;;18.67;46.05
23016;BME280;11674;52.428;13.584;2022-07-29T00:23:41;101644.66;;;18.65;45.84
23016;BME280;11674;52.428;13.584;2022-07-29T00:26:13;101640.53;;;18.62;46.03
23016;BME280;11674;52.428;13.584;2022-07-29T00:28:45;101637.22;;;18.60;46.10
23016;BME280;11674;52.428;13.584;2022-07-29T00:31:17;101631.72;;;18.55;46.15
23016;BME280;11674;52.428;13.584;2022-07-29T00:33:49;101647.25;;;18.53;46.53
23016;BME280;11674;52.428;13.584;2022-07-29T00:36:14;101636.63;;;18.50;46.58
23016;BME280;11674;52.428;13.584;2022-07-29T00:38:47;101638.13;;;18.47;46.73
23016;BME280;11674;52.428;13.584;2022-07-29T00:41:19;101636.28;;;18.43;46.94
23016;BME280;11674;52.428;13.584;2022-07-29T00:43:51;101638.91;;;18.39;46.74
23016;BME280;11674;52.428;13.584;2022-07-29T00:46:23;101642.34;;;18.36;46.97
23016;BME280;11674;52.428;13.584;2022-07-29T00:48:55;101634.00;;;18.31;47.15
23016;BME280;11674;52.428;13.584;2022-07-29T00:51:27;101635.47;;;18.29;47.30
23016;BME280;11674;52.428;13.584;2022-07-29T00:53:59;101640.59;;;18.27;47.30
23016;BME280;11674;52.428;13.584;2022-07-29T00:56:32;101627.22;;;18.24;47.33
23016;BME280;11674;52.428;13.584;2022-07-29T00:59:04;101622.22;;;18.21;47.52
23016;BME280;11674;52.428;13.584;2022-07-29T01:01:36;101630.16;;;18.19;47.43
23016;BME280;11674;52.428;13.584;2022-07-29T01:04:08;101624.31;;;18.15;47.72
23016;BME280;11674;52.428;13.584;2022-07-29T01:06:41;101620.81;;;18.10;47.65
23016;BME280;11674;52.428;13.584;2022-07-29T01:09:14;101621.44;;;18.07;48.09
23016;BME280;11674;52.428;13.584;2022-07-29T01:11:46;101616.50;;;18.04;47.99
23016;BME280;11674;52.428;13.584;2022-07-29T01:14:20;101614.00;;;18.02;48.34
23016;BME280;11674;52.428;13.584;2022-07-29T01:16:59;101620.25;;;17.99;48.29
23016;BME280;11674;52.428;13.584;2022-07-29T01:19:56;101615.28;;;17.96;48.31
23016;BME280;11674;52.428;13.584;2022-07-29T01:22:44;101605.50;;;17.94;48.47
23016;BME280;11674;52.428;13.584;2022-07-29T01:30:35;101590.75;;;17.88;48.58
23016;BME280;11674;52.428;13.584;2022-07-29T01:33:11;101588.28;;;17.87;48.93
23016;BME280;11674;52.428;13.584;2022-07-29T01:35:45;101585.25;;;17.83;49.06
23016;BME280;11674;52.428;13.584;2022-07-29T01:38:21;101571.22;;;17.83;48.83
23016;BME280;11674;52.428;13.584;2022-07-29T01:41:06;101575.00;;;17.79;49.03
23016;BME280;11674;52.428;13.584;2022-07-29T01:44:01;101568.34;;;17.75;49.10
23016;BME280;11674;52.428;13.584;2022-07-29T01:46:36;101564.88;;;17.69;49.51
23016;BME280;11674;52.428;13.584;2022-07-29T01:49:13;101553.44;;;17.66;49.78
23016;BME280;11674;52.428;13.584;2022-07-29T01:52:07;101544.31;;;17.60;49.52
23016;BME280;11674;52.428;13.584;2022-07-29T01:54:55;101542.97;;;17.58;49.70
23016;BME280;11674;52.428;13.584;2022-07-29T01:57:31;101535.69;;;17.57;49.86
23016;BME280;11674;52.428;13.584;2022-07-29T02:00:05;101539.97;;;17.54;49.90
23016;BME280;11674;52.428;13.584;2022-07-29T02:02:41;101536.84;;;17.56;49.87
23016;BME280;11674;52.428;13.584;2022-07-29T02:05:16;101539.97;;;17.54;50.35
23016;BME280;11674;52.428;13.584;2022-07-29T02:07:48;101539.66;;;17.56;50.16
23016;BME280;11674;52.428;13.584;2022-07-29T02:10:24;101534.84;;;17.56;50.40
23016;BME280;11674;52.428;13.584;2022-07-29T02:12:57;101538.50;;;17.57;50.39
23016;BME280;11674;52.428;13.584;2022-07-29T02:15:32;101530.09;;;17.57;50.18
23016;BME280;11674;52.428;13.584;2022-07-29T02:18:07;101530.41;;;17.55;50.36
23016;BME280;11674;52.428;13.584;2022-07-29T02:20:44;101536.00;;;17.55;50.54
23016;BME280;11674;52.428;13.584;2022-07-29T02:23:19;101537.34;;;17.58;50.39
23016;BME280;11674;52.428;13.584;2022-07-29T02:25:53;101542.00;;;17.62;50.56
23016;BME280;11674;52.428;13.584;2022-07-29T02:28:27;101544.50;;;17.64;50.51
23016;BME280;11674;52.428;13.584;2022-07-29T02:31:02;101547.63;;;17.62;50.58
23016;BME280;11674;52.428;13.584;2022-07-29T02:33:35;101549.59;;;17.62;50.78
23016;BME280;11674;52.428;13.584;2022-07-29T02:36:07;101545.78;;;17.58;51.22
23016;BME280;11674;52.428;13.584;2022-07-29T02:38:41;101555.34;;;17.57;50.93
23016;BME280;11674;52.428;13.584;2022-07-29T02:41:17;101549.72;;;17.57;51.04
23016;BME280;11674;52.428;13.584;2022-07-29T02:43:56;101550.56;;;17.57;51.15
23016;BME280;11674;52.428;13.584;2022-07-29T02:46:33;101552.53;;;17.57;51.26
23016;BME280;11674;52.428;13.584;2022-07-29T02:49:15;101552.03;;;17.55;51.52
23016;BME280;11674;52.428;13.584;2022-07-29T02:51:54;101545.59;;;17.54;51.68
23016;BME280;11674;52.428;13.584;2022-07-29T02:54:40;101543.94;;;17.53;51.76
23016;BME280;11674;52.428;13.584;2022-07-29T02:57:21;101548.69;;;17.53;51.86
23016;BME280;11674;52.428;13.584;2022-07-29T02:59:57;101554.63;;;17.51;51.89
23016;BME280;11674;52.428;13.584;2022-07-29T03:02:34;101546.53;;;17.50;51.67
23016;BME280;11674;52.428;13.584;2022-07-29T03:05:09;101552.16;;;17.50;52.03
23016;BME280;11674;52.428;13.584;2022-07-29T03:07:45;101543.09;;;17.53;51.90
23016;BME280;11674;52.428;13.584;2022-07-29T03:10:18;101544.75;;;17.54;51.70
23016;BME280;11674;52.428;13.584;2022-07-29T03:12:50;101547.53;;;17.54;51.85
23016;BME280;11674;52.428;13.584;2022-07-29T03:15:22;101549.53;;;17.53;52.04
23016;BME280;11674;52.428;13.584;2022-07-29T03:17:55;101548.69;;;17.53;52.15
23016;BME280;11674;52.428;13.584;2022-07-29T03:20:27;101549.53;;;17.53;52.33
23016;BME280;11674;52.428;13.584;2022-07-29T03:22:59;101550.88;;;17.56;52.16
23016;BME280;11674;52.428;13.584;2022-07-29T03:25:31;101538.00;;;17.55;51.92
23016;BME280;11674;52.428;13.584;2022-07-29T03:28:03;101535.50;;;17.53;52.48
23016;BME280;11674;52.428;13.584;2022-07-29T03:30:35;101529.91;;;17.53;52.33
23016;BME280;11674;52.428;13.584;2022-07-29T03:33:07;101532.69;;;17.53;52.32
23016;BME280;11674;52.428;13.584;2022-07-29T03:35:39;101539.97;;;17.54;52.12
23016;BME280;11674;52.428;13.584;2022-07-29T03:38:11;101531.25;;;17.56;52.44
23016;BME280;11674;52.428;13.584;2022-07-29T03:40:51;101537.34;;;17.58;52.38
23016;BME280;11674;52.428;13.584;2022-07-29T03:43:24;101533.75;;;17.57;52.34
23016;BME280;11674;52.428;13.584;2022-07-29T03:45:59;101529.78;;;17.58;52.21
23016;BME280;11674;52.428;13.584;2022-07-29T03:48:34;101529.78;;;17.58;52.34
23016;BME280;11674;52.428;13.584;2022-07-29T03:51:07;101530.59;;;17.59;52.57
23016;BME280;11674;52.428;13.584;2022-07-29T03:53:39;101529.13;;;17.61;52.32
23016;BME280;11674;52.428;13.584;2022-07-29T03:56:15;101534.13;;;17.64;52.33
23016;BME280;11674;52.428;13.584;2022-07-29T03:58:49;101538.44;;;17.70;52.39
23016;BME280;11674;52.428;13.584;2022-07-29T04:01:22;101527.94;;;17.76;52.44
23016;BME280;11674;52.428;13.584;2022-07-29T04:03:55;101535.06;;;17.82;52.58
23016;BME280;11674;52.428;13.584;2022-07-29T04:06:28;101533.25;;;17.86;52.47
23016;BME280;11674;52.428;13.584;2022-07-29T04:09:00;101537.41;;;17.88;52.24
23016;BME280;11674;52.428;13.584;2022-07-29T04:11:32;101528.84;;;17.93;52.25
23016;BME280;11674;52.428;13.584;2022-07-29T04:14:04;101533.53;;;17.98;52.44
23016;BME280;11674;52.428;13.584;2022-07-29T04:16:36;101523.50;;;18.05;52.42
23016;BME280;11674;52.428;13.584;2022-07-29T04:19:08;101533.63;;;18.15;52.35
23016;BME280;11674;52.428;13.584;2022-07-29T04:21:40;101544.06;;;18.23;52.18
23016;BME280;11674;52.428;13.584;2022-07-29T04:24:12;101543.28;;;18.31;52.12
23016;BME280;11674;52.428;13.584;2022-07-29T04:26:47;101531.63;;;18.37;52.48
23016;BME280;11674;52.428;13.584;2022-07-29T04:29:19;101541.75;;;18.47;52.09
23016;BME280;11674;52.428;13.584;2022-07-29T04:31:51;101539.47;;;18.57;51.85
23016;BME280;11674;52.428;13.584;2022-07-29T04:34:23;101537.53;;;18.66;52.04
23016;BME280;11674;52.428;13.584;2022-07-29T04:36:55;101537.88;;;18.73;51.60
23016;BME280;11674;52.428;13.584;2022-07-29T04:39:27;101539.53;;;18.74;51.57
23016;BME280;11674;52.428;13.584;2022-07-29T04:41:59;101535.75;;;18.79;51.82
23016;BME280;11674;52.428;13.584;2022-07-29T04:44:31;101533.09;;;18.82;51.44
23016;BME280;11674;52.428;13.584;2022-07-29T04:47:03;101539.06;;;18.89;51.59
23016;BME280;11674;52.428;13.584;2022-07-29T04:49:38;101540.56;;;18.95;51.51
23016;BME280;11674;52.428;13.584;2022-07-29T04:52:09;101535.16;;;18.99;51.43
23016;BME280;11674;52.428;13.584;2022-07-29T04:54:41;101538.13;;;19.02;51.49
23016;BME280;11674;52.428;13.584;2022-07-29T04:57:13;101538.28;;;19.06;51.36
23016;BME280;11674;52.428;13.584;2022-07-29T04:59:45;101538.31;;;19.14;51.35
23016;BME280;11674;52.428;13.584;2022-07-29T05:02:17;101543.47;;;19.21;50.87
23016;BME280;11674;52.428;13.584;2022-07-29T05:04:49;101531.69;;;19.19;51.12
23016;BME280;11674;52.428;13.584;2022-07-29T05:07:21;101546.09;;;19.17;50.83
23016;BME280;11674;52.428;13.584;2022-07-29T05:09:53;101542.44;;;19.17;50.76
23016;BME280;11674;52.428;13.584;2022-07-29T05:12:25;101533.69;;;19.18;51.02
23016;BME280;11674;52.428;13.584;2022-07-29T05:14:57;101541.13;;;19.14;50.66
23016;BME280;11674;52.428;13.584;2022-07-29T05:17:29;101536.66;;;19.13;51.10
23016;BME280;11674;52.428;13.584;2022-07-29T05:20:01;101534.00;;;19.17;50.81
23016;BME280;11674;52.428;13.584;2022-07-29T05:22:33;101542.50;;;19.25;50.63
23016;BME280;11674;52.428;13.584;2022-07-29T05:25:05;101533.25;;;19.33;50.61
23016;BME280;11674;52.428;13.584;2022-07-29T05:27:37;101539.03;;;19.37;50.73
23016;BME280;11674;52.428;13.584;2022-07-29T05:30:09;101537.72;;;19.43;50.52
23016;BME280;11674;52.428;13.584;2022-07-29T05:32:41;101532.25;;;19.55;50.36
23016;BME280;11674;52.428;13.584;2022-07-29T05:35:14;101530.59;;;19.62;50.22
23016;BME280;11674;52.428;13.584;2022-07-29T05:37:46;101534.72;;;19.65;49.98
23016;BME280;11674;52.428;13.584;2022-07-29T05:40:18;101536.19;;;19.71;50.19
23016;BME280;11674;52.428;13.584;2022-07-29T05:42:50;101533.69;;;19.78;50.13
23016;BME280;11674;52.428;13.584;2022-07-29T05:45:22;101523.28;;;19.78;50.01
23016;BME280;11674;52.428;13.584;2022-07-29T05:47:54;101528.06;;;19.78;50.07
23016;BME280;11674;52.428;13.584;2022-07-29T05:50:26;101524.28;;;19.82;49.80
23016;BME280;11674;52.428;13.584;2022-07-29T05:52:58;101521.13;;;19.84;49.85
23016;BME280;11674;52.428;13.584;2022-07-29T05:55:30;101532.56;;;19.87;49.68
23016;BME280;11674;52.428;13.584;2022-07-29T05:58:02;101529.88;;;19.91;49.85
23016;BME280;11674;52.428;13.584;2022-07-29T06:00:34;101537.66;;;19.94;49.47
23016;BME280;11674;52.428;13.584;2022-07-29T06:03:06;101534.50;;;19.95;49.49
23016;BME280;11674;52.428;13.584;2022-07-29T06:05:38;101537.84;;;19.97;49.63
23016;BME280;11674;52.428;13.584;2022-07-29T06:08:10;101532.50;;;20.04;49.47
23016;BME280;11674;52.428;13.584;2022-07-29T06:10:42;101529.72;;;20.13;49.53
23016;BME280;11674;52.428;13.584;2022-07-29T06:13:14;101531.47;;;20.26;49.03
23016;BME280;11674;52.428;13.584;2022-07-29T06:15:46;101532.75;;;20.37;49.03
23016;BME280;11674;52.428;13.584;2022-07-29T06:18:18;101531.72;;;20.50;49.00
23016;BME280;11674;52.428;13.584;2022-07-29T06:20:51;101545.47;;;20.60;48.56
23016;BME280;11674;52.428;13.584;2022-07-29T06:23:23;101522.72;;;20.65;48.79
23016;BME280;11674;52.428;13.584;2022-07-29T06:25:55;101524.66;;;20.73;48.48
23016;BME280;11674;52.428;13.584;2022-07-29T06:28:27;101518.16;;;20.81;48.68
23016;BME280;11674;52.428;13.584;2022-07-29T06:30:52;101519.78;;;20.90;48.28
23016;BME280;11674;52.428;13.584;2022-07-29T06:33:24;101525.56;;;20.94;48.23
23016;BME280;11674;52.428;13.584;2022-07-29T06:35:50;101519.06;;;21.02;48.33
23016;BME280;11674;52.428;13.584;2022-07-29T06:38:22;101515.31;;;21.10;47.91
23016;BME280;11674;52.428;13.584;2022-07-29T06:40:54;101515.06;;;21.23;47.84
23016;BME280;11674;52.428;13.584;2022-07-29T06:43:37;101513.97;;;21.36;47.82
23016;BME280;11674;52.428;13.584;2022-07-29T06:46:11;101521.47;;;21.53;47.19
23016;BME280;11674;52.428;13.584;2022-07-29T06:48:44;101527.00;;;21.70;47.14
23016;BME280;11674;52.428;13.584;2022-07-29T06:51:17;101528.59;;;21.79;46.88
23016;BME280;11674;52.428;13.584;2022-07-29T06:53:51;101534.97;;;21.88;47.08
23016;BME280;11674;52.428;13.584;2022-07-29T06:56:23;101531.78;;;21.90;46.96
23016;BME280;11674;52.428;13.584;2022-07-29T06:58:55;101533.94;;;21.93;46.88
23016;BME280;11674;52.428;13.584;2022-07-29T07:01:27;101526.75;;;21.95;46.60
23016;BME280;11674;52.428;13.584;2022-07-29T07:03:59;101531.56;;;21.95;46.51
23016;BME280;11674;52.428;13.584;2022-07-29T07:06:31;101534.41;;;21.95;46.80
23016;BME280;11674;52.428;13.584;2022-07-29T07:09:06;101543.22;;;21.93;46.29
23016;BME280;11674;52.428;13.584;2022-07-29T07:11:38;101542.75;;;21.91;46.36
23016;BME280;11674;52.428;13.584;2022-07-29T07:14:10;101543.84;;;21.99;46.10
23016;BME280;11674;52.428;13.584;2022-07-29T07:16:42;101544.22;;;22.09;45.82
23016;BME280;11674;52.428;13.584;2022-07-29T07:19:14;101540.50;;;22.17;45.82
23016;BME280;11674;52.428;13.584;2022-07-29T07:21:39;101541.06;;;22.23;45.80
23016;BME280;11674;52.428;13.584;2022-07-29T07:24:11;101542.44;;;22.37;45.85
23016;BME280;11674;52.428;13.584;2022-07-29T07:26:43;101537.50;;;22.46;45.66
23016;BME280;11674;52.428;13.584;2022-07-29T07:29:15;101545.88;;;22.55;45.56
23016;BME280;11674;52.428;13.584;2022-07-29T07:31:47;101538.81;;;22.61;45.59
23016;BME280;11674;52.428;13.584;2022-07-29T07:34:19;101538.25;;;22.67;44.97
23016;BME280;11674;52.428;13.584;2022-07-29T07:36:51;101535.28;;;22.76;45.02
23016;BME280;11674;52.428;13.584;2022-07-29T07:39:23;101536.13;;;22.76;44.96
23016;BME280;11674;52.428;13.584;2022-07-29T07:41:55;101539.66;;;22.73;45.12
23016;BME280;11674;52.428;13.584;2022-07-29T07:44:27;101540.94;;;22.76;44.81
23016;BME280;11674;52.428;13.584;2022-07-29T07:46:59;101532.22;;;22.81;44.61
23016;BME280;11674;52.428;13.584;2022-07-29T07:49:31;101535.56;;;22.83;44.57
23016;BME280;11674;52.428;13.584;2022-07-29T07:51:56;101536.97;;;22.89;44.50
23016;BME280;11674;52.428;13.584;2022-07-29T07:54:28;101536.50;;;22.99;44.46
23016;BME280;11674;52.428;13.584;2022-07-29T07:57:00;101528.91;;;23.03;44.40
23016;BME280;11674;52.428;13.584;2022-07-29T07:59:25;101527.13;;;23.10;44.11
23016;BME280;11674;52.428;13.584;2022-07-29T08:01:57;101532.34;;;23.20;44.13
23016;BME280;11674;52.428;13.584;2022-07-29T08:04:29;101520.53;;;23.30;43.72
23016;BME280;11674;52.428;13.584;2022-07-29T08:07:01;101523.44;;;23.46;43.90
23016;BME280;11674;52.428;13.584;2022-07-29T08:09:33;101514.66;;;23.63;43.64
23016;BME280;11674;52.428;13.584;2022-07-29T08:12:05;101517.91;;;23.77;43.45
23016;BME280;11674;52.428;13.584;2022-07-29T08:14:37;101511.50;;;23.92;42.92
23016;BME280;11674;52.428;13.584;2022-07-29T08:17:09;101500.56;;;24.06;42.99
23016;BME280;11674;52.428;13.584;2022-07-29T08:19:41;101505.41;;;24.21;42.75
23016;BME280;11674;52.428;13.584;2022-07-29T08:22:13;101513.03;;;24.32;42.41
23016;BME280;11674;52.428;13.584;2022-07-29T08:24:45;101510.94;;;24.45;42.25
23016;BME280;11674;52.428;13.584;2022-07-29T08:27:18;101519.25;;;24.53;41.98
23016;BME280;11674;52.428;13.584;2022-07-29T08:29:50;101513.78;;;24.60;42.12
23016;BME280;11674;52.428;13.584;2022-07-29T08:32:22;101514.78;;;24.68;41.88
23016;BME280;11674;52.428;13.584;2022-07-29T08:34:54;101507.84;;;24.81;41.33
23016;BME280;11674;52.428;13.584;2022-07-29T08:37:26;101511.50;;;24.97;41.20
23016;BME280;11674;52.428;13.584;2022-07-29T08:39:58;101512.19;;;25.09;40.88
23016;BME280;11674;52.428;13.584;2022-07-29T08:42:24;101505.91;;;25.19;40.91
23016;BME280;11674;52.428;13.584;2022-07-29T08:44:56;101502.16;;;25.31;40.37
23016;BME280;11674;52.428;13.584;2022-07-29T08:47:28;101509.50;;;25.32;40.17
23016;BME280;11674;52.428;13.584;2022-07-29T08:50:01;101501.16;;;25.39;40.13
23016;BME280;11674;52.428;13.584;2022-07-29T08:52:29;101500.53;;;25.49;39.64
23016;BME280;11674;52.428;13.584;2022-07-29T08:55:05;101491.34;;;25.55;39.18
23016;BME280;11674;52.428;13.584;2022-07-29T08:57:38;101490.53;;;25.55;38.91
23016;BME280;11674;52.428;13.584;2022-07-29T09:00:10;101493.94;;;25.64;39.29
23016;BME280;11674;52.428;13.584;2022-07-29T09:02:39;101494.50;;;25.69;38.96
23016;BME280;11674;52.428;13.584;2022-07-29T09:05:11;101481.69;;;25.79;38.83
23016;BME280;11674;52.428;13.584;2022-07-29T09:07:38;101485.94;;;25.88;38.50
23016;BME280;11674;52.428;13.584;2022-07-29T09:10:10;101487.75;;;25.96;38.74
23016;BME280;11674;52.428;13.584;2022-07-29T09:12:42;101492.00;;;26.06;38.51
23016;BME280;11674;52.428;13.584;2022-07-29T09:15:14;101487.72;;;26.15;38.12
23016;BME280;11674;52.428;13.584;2022-07-29T09:17:48;101482.22;;;26.26;37.94
23016;BME280;11674;52.428;13.584;2022-07-29T09:20:21;101488.50;;;26.35;37.77
23016;BME280;11674;52.428;13.584;2022-07-29T09:22:53;101482.63;;;26.47;37.75
23016;BME280;11674;52.428;13.584;2022-07-29T09:25:35;101483.72;;;26.61;37.17
23016;BME280;11674;52.428;13.584;2022-07-29T09:28:09;101472.75;;;26.63;36.81
23016;BME280;11674;52.428;13.584;2022-07-29T09:30:54;101476.47;;;26.67;36.85
23016;BME280;11674;52.428;13.584;2022-07-29T09:33:33;101477.78;;;26.73;36.48
23016;BME280;11674;52.428;13.584;2022-07-29T09:36:09;101477.41;;;26.75;35.96
23016;BME280;11674;52.428;13.584;2022-07-29T09:38:41;101476.72;;;26.81;35.82
23016;BME280;11674;52.428;13.584;2022-07-29T09:41:15;101480.97;;;26.94;35.97
23016;BME280;11674;52.428;13.584;2022-07-29T09:43:57;101474.06;;;27.18;35.41
23016;BME280;11674;52.428;13.584;2022-07-29T09:46:29;101473.09;;;27.36;35.47
23016;BME280;11674;52.428;13.584;2022-07-29T09:49:12;101469.22;;;27.51;34.89
23016;BME280;11674;52.428;13.584;2022-07-29T09:51:44;101472.19;;;27.62;34.96
23016;BME280;11674;52.428;13.584;2022-07-29T09:54:26;101471.16;;;27.77;34.63
23016;BME280;11674;52.428;13.584;2022-07-29T09:56:58;101469.41;;;27.95;34.45
23016;BME280;11674;52.428;13.584;2022-07-29T09:59:30;101464.31;;;28.14;34.25
23016;BME280;11674;52.428;13.584;2022-07-29T10:02:11;101455.91;;;28.32;33.74
23016;BME280;11674;52.428;13.584;2022-07-29T10:04:43;101453.19;;;28.46;33.83
23016;BME280;11674;52.428;13.584;2022-07-29T10:07:15;101461.50;;;28.61;33.49
23016;BME280;11674;52.428;13.584;2022-07-29T10:09:55;101447.81;;;28.88;33.04
23016;BME280;11674;52.428;13.584;2022-07-29T10:12:27;101447.53;;;29.03;32.76
23016;BME280;11674;52.428;13.584;2022-07-29T10:15:01;101455.31;;;29.03;32.53
23016;BME280;11674;52.428;13.584;2022-07-29T10:17:27;101455.78;;;29.12;32.51
23016;BME280;11674;52.428;13.584;2022-07-29T10:19:59;101451.59;;;28.99;32.11
23016;BME280;11674;52.428;13.584;2022-07-29T10:22:31;101456.06;;;28.96;32.13
23016;BME280;11674;52.428;13.584;2022-07-29T10:25:03;101449.13;;;28.97;31.90
23016;BME280;11674;52.428;13.584;2022-07-29T10:27:36;101454.06;;;29.00;31.62
23016;BME280;11674;52.428;13.584;2022-07-29T10:30:09;101453.25;;;29.03;31.56
23016;BME280;11674;52.428;13.584;2022-07-29T10:32:54;101445.16;;;29.16;31.28
23016;BME280;11674;52.428;13.584;2022-07-29T10:41:39;101436.66;;;29.26;30.67
23016;BME280;11674;52.428;13.584;2022-07-29T10:44:19;101427.22;;;29.15;31.04
23016;BME280;11674;52.428;13.584;2022-07-29T10:46:52;101434.16;;;29.18;31.34
23016;BME280;11674;52.428;13.584;2022-07-29T10:49:26;101429.69;;;29.20;30.81
23016;BME280;11674;52.428;13.584;2022-07-29T10:52:07;101425.91;;;29.06;30.69
23016;BME280;11674;52.428;13.584;2022-07-29T10:54:47;101423.88;;;29.03;31.08
23016;BME280;11674;52.428;13.584;2022-07-29T10:57:27;101430.38;;;29.00;30.89
23016;BME280;11674;52.428;13.584;2022-07-29T11:05:07;101426.44;;;29.25;30.99
23016;BME280;11674;52.428;13.584;2022-07-29T11:10:51;101428.25;;;29.65;30.61
23016;BME280;11674;52.428;13.584;2022-07-29T11:13:45;101409.50;;;29.78;30.54
23016;BME280;11674;52.428;13.584;2022-07-29T11:16:19;101415.28;;;29.92;30.40
23016;BME280;11674;52.428;13.584;2022-07-29T11:21:44;101411.16;;;29.86;30.39
23016;BME280;11674;52.428;13.584;2022-07-29T11:29:57;101405.81;;;29.74;30.77
23016;BME280;11674;52.428;13.584;2022-07-29T11:32:38;101405.44;;;29.86;30.30
23016;BME280;11674;52.428;13.584;2022-07-29T11:37:43;101416.56;;;30.15;30.56
23016;BME280;11674;52.428;13.584;2022-07-29T11:40:15;101407.53;;;30.10;30.53
23016;BME280;11674;52.428;13.584;2022-07-29T11:42:47;101404.25;;;30.08;30.95
23016;BME280;11674;52.428;13.584;2022-07-29T11:45:23;101398.56;;;30.25;30.32
23016;BME280;11674;52.428;13.584;2022-07-29T11:47:57;101392.03;;;30.28;30.28
23016;BME280;11674;52.428;13.584;2022-07-29T11:53:10;101398.56;;;30.67;30.32
23016;BME280;11674;52.428;13.584;2022-07-29T11:55:42;101400.59;;;30.91;30.36
23016;BME280;11674;52.428;13.584;2022-07-29T11:58:14;101401.38;;;31.20;29.77
23016;BME280;11674;52.428;13.584;2022-07-29T12:00:53;101385.31;;;31.36;29.79
23016;BME280;11674;52.428;13.584;2022-07-29T12:03:26;101388.56;;;31.42;29.71
23016;BME280;11674;52.428;13.584;2022-07-29T12:05:58;101384.88;;;31.41;29.53
23016;BME280;11674;52.428;13.584;2022-07-29T12:08:42;101379.88;;;31.56;29.75
23016;BME280;11674;52.428;13.584;2022-07-29T12:11:20;101376.84;;;31.87;29.32
23016;BME280;11674;52.428;13.584;2022-07-29T12:13:52;101382.41;;;32.12;29.01
23016;BME280;11674;52.428;13.584;2022-07-29T12:16:37;101373.53;;;31.92;28.76
23016;BME280;11674;52.428;13.584;2022-07-29T12:19:09;101370.16;;;32.04;28.95
23016;BME280;11674;52.428;13.584;2022-07-29T12:21:51;101361.19;;;32.50;28.38
23016;BME280;11674;52.428;13.584;2022-07-29T12:24:23;101359.59;;;33.23;27.92
23016;BME280;11674;52.428;13.584;2022-07-29T12:26:58;101351.28;;;33.88;27.43
23016;BME280;11674;52.428;13.584;2022-07-29T12:29:30;101357.22;;;34.31;27.23
23016;BME280;11674;52.428;13.584;2022-07-29T12:32:03;101351.72;;;34.40;27.40
23016;BME280;11674;52.428;13.584;2022-07-29T12:34:42;101350.44;;;34.41;27.06
23016;BME280;11674;52.428;13.584;2022-07-29T12:37:14;101362.84;;;34.61;26.84
23016;BME280;11674;52.428;13.584;2022-07-29T12:39:46;101360.19;;;34.93;26.74
23016;BME280;11674;52.428;13.584;2022-07-29T12:42:18;101351.06;;;35.37;26.71
23016;BME280;11674;52.428;13.584;2022-07-29T12:44:50;101342.09;;;35.67;26.64
23016;BME280;11674;52.428;13.584;2022-07-29T12:47:23;101336.28;;;35.51;26.32
23016;BME280;11674;52.428;13.584;2022-07-29T12:50:10;101340.38;;;35.34;26.02
23016;BME280;11674;52.428;13.584;2022-07-29T12:52:41;101345.81;;;35.32;26.40
23016;BME280;11674;52.428;13.584;2022-07-29T12:55:14;101338.41;;;35.31;26.13
23016;BME280;11674;52.428;13.584;2022-07-29T12:57:50;101338.25;;;34.99;25.74
23016;BME280;11674;52.428;13.584;2022-07-29T13:00:23;101341.34;;;34.42;25.91
23016;BME280;11674;52.428;13.584;2022-07-29T13:02:57;101331.66;;;33.80;26.15
23016;BME280;11674;52.428;13.584;2022-07-29T13:05:40;101331.22;;;33.51;26.39
23016;BME280;11674;52.428;13.584;2022-07-29T13:08:15;101332.31;;;33.34;26.34
23016;BME280;11674;52.428;13.584;2022-07-29T13:10:46;101327.94;;;33.19;26.57
23016;BME280;11674;52.428;13.584;2022-07-29T13:13:18;101327.63;;;33.14;26.61
23016;BME280;11674;52.428;13.584;2022-07-29T13:16:06;101320.03;;;33.27;26.68
23016;BME280;11674;52.428;13.584;2022-07-29T13:18:38;101328.34;;;33.51;26.51
23016;BME280;11674;52.428;13.584;2022-07-29T13:21:13;101317.25;;;33.53;26.42
23016;BME280;11674;52.428;13.584;2022-07-29T13:23:45;101319.22;;;33.56;26.81
23016;BME280;11674;52.428;13.584;2022-07-29T13:26:17;101308.03;;;33.92;26.53
23016;BME280;11674;52.428;13.584;2022-07-29T13:28:49;101289.09;;;33.91;25.99
23016;BME280;11674;52.428;13.584;2022-07-29T13:31:21;101305.81;;;33.46;26.34
23016;BME280;11674;52.428;13.584;2022-07-29T13:33:53;101306.19;;;33.48;26.23
23016;BME280;11674;52.428;13.584;2022-07-29T13:36:25;101299.91;;;33.57;25.97
23016;BME280;11674;52.428;13.584;2022-07-29T13:38:57;101304.13;;;33.49;26.25
23016;BME280;11674;52.428;13.584;2022-07-29T13:41:29;101306.25;;;33.71;26.48
23016;BME280;11674;52.428;13.584;2022-07-29T13:44:01;101294.16;;;33.83;26.06
23016;BME280;11674;52.428;13.584;2022-07-29T13:46:33;101298.88;;;33.97;25.78